Time;durP1;ratioP1;P1;durP2;ratioP2;P2;SDS_P1;SDS_P2;PMS_P1;PMS_P2;Temp;Humidity;BMP_temperature;BMP_pressure;BME280_temperature;BME280_humidity;BME280_pressure;Samples;Min_cycle;Max_cycle;Signal;HPM_P1;HPM_P2
2022/09/22 00:04:27;;;;;;;2.63;1.70;;;;;;;;;;10283216;28;20095;-68
2022/09/22 00:09:26;;;;;;;7.93;2.65;;;;;;;;;;10281475;28;20081;-67
2022/09/22 00:14:27;;;;;;;1.77;1.67;;;;;;;;;;10275351;28;20071;-67
2022/09/22 00:19:27;;;;;;;1.40;1.30;;;;;;;;;;10280463;28;20080;-67
2022/09/22 00:24:26;;;;;;;2.25;2.05;;;;;;;;;;10279353;28;20076;-67
2022/09/22 00:29:26;;;;;;;2.17;1.98;;;;;;;;;;10281761;28;20068;-67
2022/09/22 00:34:25;;;;;;;3.33;1.65;;;;;;;;;;10281306;28;20065;-66
2022/09/22 00:39:23;;;;;;;2.28;2.03;;;;;;;;;;10288300;28;20494;-67
2022/09/22 00:44:34;;;;;;;2.42;1.88;;;;;;;;;;10288250;28;20073;-67
2022/09/22 00:49:35;;;;;;;3.08;2.63;;;;;;;;;;10288975;28;20485;-67
2022/09/22 00:54:33;;;;;;;1.65;1.55;;;;;;;;;;10287440;28;20064;-67
2022/09/22 00:59:33;;;;;;;2.80;2.25;;;;;;;;;;10288595;28;20073;-66
2022/09/22 01:04:32;;;;;;;5.03;1.90;;;;;;;;;;10297391;28;20072;-67
2022/09/22 01:09:32;;;;;;;2.22;1.73;;;;;;;;;;10290559;28;20096;-66
2022/09/22 01:14:35;;;;;;;1.50;1.40;;;;;;;;;;10294349;28;20045;-66
2022/09/22 01:19:52;;;;;;;2.40;2.20;;;;;;;;;;10281797;28;20076;-66
2022/09/22 01:25:00;;;;;;;2.10;1.88;;;;;;;;;;10280223;28;20080;-66
2022/09/22 01:30:13;;;;;;;3.38;2.33;;;;;;;;;;10285455;28;20465;-66
2022/09/22 01:35:16;;;;;;;2.13;1.75;;;;;;;;;;10286967;28;20068;-66
2022/09/22 01:40:17;;;;;;;1.75;1.65;;;;;;;;;;10284622;28;20493;-66
2022/09/22 01:45:19;;;;;;;2.40;2.00;;;;;;;;;;10297755;28;20048;-66
2022/09/22 01:50:20;;;;;;;1.65;1.55;;;;;;;;;;10282609;28;20076;-67
2022/09/22 01:55:21;;;;;;;3.13;1.77;;;;;;;;;;10292413;28;20076;-66
2022/09/22 02:00:22;;;;;;;1.80;1.70;;;;;;;;;;10283129;28;20068;-66
2022/09/22 02:05:22;;;;;;;2.33;2.13;;;;;;;;;;10285319;28;20102;-65
2022/09/22 02:10:23;;;;;;;2.45;2.25;;;;;;;;;;10285025;28;20076;-66
2022/09/22 02:20:39;;;;;;;1.98;1.70;;;;;;;;;;10286889;28;20036;-66
2022/09/22 02:25:38;;;;;;;1.90;1.80;;;;;;;;;;10295135;28;20049;-67
2022/09/22 02:30:38;;;;;;;4.90;2.30;;;;;;;;;;10277711;28;20092;-66
2022/09/22 02:35:39;;;;;;;2.10;1.90;;;;;;;;;;10290037;28;20084;-65
2022/09/22 02:40:39;;;;;;;2.35;2.15;;;;;;;;;;10284742;28;20084;-65
2022/09/22 02:45:43;;;;;;;2.95;1.70;;;;;;;;;;10283831;28;20568;-65
2022/09/22 02:50:42;;;;;;;2.07;1.83;;;;;;;;;;10284376;28;20122;-65
2022/09/22 02:55:41;;;;;;;3.13;2.40;;;;;;;;;;10284159;28;20071;-64
2022/09/22 03:00:41;;;;;;;2.08;1.88;;;;;;;;;;10282162;28;20083;-64
2022/09/22 03:05:39;;;;;;;1.73;1.63;;;;;;;;;;10282652;28;20076;-65
2022/09/22 03:10:37;;;;;;;2.33;2.13;;;;;;;;;;10284174;28;20532;-65
2022/09/22 03:15:36;;;;;;;2.22;1.92;;;;;;;;;;10284008;28;20072;-66
2022/09/22 03:20:35;;;;;;;2.20;2.00;;;;;;;;;;10282961;28;20044;-65
2022/09/22 03:25:34;;;;;;;1.60;1.50;;;;;;;;;;10283322;28;20071;-66
2022/09/22 03:30:34;;;;;;;2.47;2.28;;;;;;;;;;10281781;28;20071;-65
2022/09/22 03:35:32;;;;;;;2.92;2.42;;;;;;;;;;10282921;28;20045;-65
2022/09/22 03:40:32;;;;;;;5.25;2.53;;;;;;;;;;10280896;28;20079;-65
2022/09/22 03:45:31;;;;;;;2.92;2.30;;;;;;;;;;10283724;28;20481;-66
2022/09/22 03:50:29;;;;;;;2.53;2.33;;;;;;;;;;10282194;28;20080;-65
2022/09/22 03:55:27;;;;;;;4.45;2.50;;;;;;;;;;10281351;28;20483;-65
2022/09/22 04:00:27;;;;;;;5.50;2.28;;;;;;;;;;10293343;28;20091;-65
2022/09/22 04:05:25;;;;;;;4.72;4.22;;;;;;;;;;10276872;28;20041;-66
2022/09/22 04:10:24;;;;;;;4.07;2.85;;;;;;;;;;10285841;28;20068;-66
2022/09/22 04:15:22;;;;;;;3.10;2.70;;;;;;;;;;10290384;28;20505;-65
2022/09/22 04:20:22;;;;;;;2.72;2.42;;;;;;;;;;10288608;28;20068;-67
2022/09/22 04:25:20;;;;;;;4.05;2.33;;;;;;;;;;10287578;28;20075;-66
2022/09/22 04:30:18;;;;;;;9.63;3.80;;;;;;;;;;10288458;28;20079;-66
2022/09/22 04:35:17;;;;;;;4.82;2.63;;;;;;;;;;10289039;28;20533;-66
2022/09/22 04:40:17;;;;;;;3.17;2.88;;;;;;;;;;10300104;28;20071;-66
2022/09/22 04:45:15;;;;;;;3.55;2.67;;;;;;;;;;10284621;28;20044;-66
2022/09/22 04:50:13;;;;;;;4.45;2.65;;;;;;;;;;10294558;28;20072;-66
2022/09/22 04:55:12;;;;;;;2.70;2.50;;;;;;;;;;10285029;28;20064;-65
2022/09/22 05:00:12;;;;;;;2.90;2.60;;;;;;;;;;10285015;28;20505;-66
2022/09/22 05:05:10;;;;;;;4.72;3.22;;;;;;;;;;10285860;28;20068;-66
2022/09/22 05:10:10;;;;;;;4.20;3.78;;;;;;;;;;10299380;28;20092;-66
2022/09/22 05:15:09;;;;;;;5.82;3.08;;;;;;;;;;10285558;28;20037;-66
2022/09/22 05:20:10;;;;;;;7.78;6.05;;;;;;;;;;10292617;28;20080;-66
2022/09/22 05:25:10;;;;;;;5.90;3.90;;;;;;;;;;10281567;28;20105;-65
2022/09/22 05:30:08;;;;;;;4.00;3.60;;;;;;;;;;10285097;28;20503;-65
2022/09/22 05:35:07;;;;;;;7.72;3.60;;;;;;;;;;10286004;28;20084;-66
2022/09/22 05:40:07;;;;;;;4.93;4.30;;;;;;;;;;10283855;28;20115;-66
2022/09/22 05:45:06;;;;;;;4.65;3.55;;;;;;;;;;10281002;28;20076;-65
2022/09/22 05:50:05;;;;;;;4.90;4.43;;;;;;;;;;10286582;28;20092;-64
2022/09/22 05:55:04;;;;;;;6.82;4.13;;;;;;;;;;10285311;28;20485;-64
2022/09/22 06:00:06;;;;;;;4.43;3.55;;;;;;;;;;10285093;28;20529;-65
2022/09/22 06:05:10;;;;;;;5.63;4.20;;;;;;;;;;10287587;28;20088;-66
2022/09/22 06:10:10;;;;;;;4.32;3.67;;;;;;;;;;10281947;28;20068;-66
2022/09/22 06:15:10;;;;;;;5.63;3.80;;;;;;;;;;10288007;28;20075;-66
2022/09/22 06:20:08;;;;;;;4.10;3.70;;;;;;;;;;10287849;28;20449;-67
2022/09/22 06:25:08;;;;;;;4.00;3.60;;;;;;;;;;10284108;28;20951;-67
2022/09/22 06:30:08;;;;;;;4.63;3.83;;;;;;;;;;10295452;28;20481;-68
2022/09/22 06:35:09;;;;;;;4.75;3.53;;;;;;;;;;10277688;28;20195;-68
2022/09/22 06:40:08;;;;;;;4.28;3.75;;;;;;;;;;10283173;28;20517;-68
2022/09/22 06:45:13;;;;;;;;;;;;;;;;;;10280399;28;20092;-68
2022/09/22 06:50:13;;;;;;;3.97;3.58;;;;;;;;;;10285529;28;19972;-68
2022/09/22 06:55:11;;;;;;;8.00;6.32;;;;;;;;;;10279694;28;20064;-66
2022/09/22 07:00:10;;;;;;;6.72;4.57;;;;;;;;;;10298488;28;20076;-66
2022/09/22 07:05:09;;;;;;;20.83;18.52;;;;;;;;;;10278558;28;20072;-66
2022/09/22 07:10:09;;;;;;;12.93;10.50;;;;;;;;;;10277407;28;20087;-67
2022/09/22 07:15:08;;;;;;;13.57;4.50;;;;;;;;;;10278633;28;20376;-67
2022/09/22 07:20:07;;;;;;;5.15;4.03;;;;;;;;;;10280265;28;20076;-66
2022/09/22 07:25:06;;;;;;;7.65;4.32;;;;;;;;;;10277701;28;20052;-67
2022/09/22 07:30:09;;;;;;;3.97;3.67;;;;;;;;;;10282270;28;20094;-67
2022/09/22 07:35:07;;;;;;;9.95;7.13;;;;;;;;;;10282513;28;20530;-66
2022/09/22 07:40:06;;;;;;;18.77;14.60;;;;;;;;;;10281852;28;20081;-66
2022/09/22 07:45:13;;;;;;;7.80;6.97;;;;;;;;;;10281366;28;20079;-66
2022/09/22 07:50:12;;;;;;;4.57;3.83;;;;;;;;;;10281654;28;20131;-67
2022/09/22 07:55:10;;;;;;;4.75;3.72;;;;;;;;;;10293509;28;20426;-66
2022/09/22 08:00:11;;;;;;;3.75;3.45;;;;;;;;;;10279030;28;20087;-67
2022/09/22 08:05:09;;;;;;;4.15;3.75;;;;;;;;;;10277730;28;20076;-66
2022/09/22 08:10:09;;;;;;;5.03;3.10;;;;;;;;;;10281871;28;20183;-67
2022/09/22 08:15:08;;;;;;;3.13;2.72;;;;;;;;;;10282713;28;20045;-67
2022/09/22 08:20:08;;;;;;;3.60;3.28;;;;;;;;;;10280831;28;20072;-67
2022/09/22 08:25:11;;;;;;;6.65;3.85;;;;;;;;;;10280124;28;20081;-67
2022/09/22 08:30:10;;;;;;;3.38;3.03;;;;;;;;;;10281742;28;20073;-67
2022/09/22 08:35:10;;;;;;;4.60;3.53;;;;;;;;;;10280364;28;20045;-66
2022/09/22 08:40:14;;;;;;;7.22;6.47;;;;;;;;;;10280703;28;20069;-68
2022/09/22 08:45:20;;;;;;;7.07;5.20;;;;;;;;;;10292629;28;20053;-67
2022/09/22 08:55:48;;;;;;;3.63;3.25;;;;;;;;;;10285799;28;20074;-68
2022/09/22 09:00:48;;;;;;;4.30;3.75;;;;;;;;;;10288035;28;20072;-68
2022/09/22 09:06:02;;;;;;;11.88;8.93;;;;;;;;;;10287611;28;20053;-68
2022/09/22 09:11:07;;;;;;;4.82;3.70;;;;;;;;;;10288450;28;20059;-67
2022/09/22 09:16:14;;;;;;;8.90;3.35;;;;;;;;;;10302950;28;20041;-67
2022/09/22 09:21:15;;;;;;;4.53;3.17;;;;;;;;;;10289902;28;20493;-67
2022/09/22 09:26:14;;;;;;;3.38;3.08;;;;;;;;;;10279193;28;20074;-67
2022/09/22 09:31:16;;;;;;;3.55;3.13;;;;;;;;;;10290623;28;20411;-68
2022/09/22 09:36:19;;;;;;;4.30;2.53;;;;;;;;;;10280608;28;20072;-67
2022/09/22 09:41:19;;;;;;;6.35;5.35;;;;;;;;;;10284371;28;20064;-67
2022/09/22 09:46:25;;;;;;;2.80;2.50;;;;;;;;;;10285252;28;20475;-68
2022/09/22 09:51:25;;;;;;;3.67;2.83;;;;;;;;;;10284590;28;20065;-67
2022/09/22 09:56:24;;;;;;;3.78;2.92;;;;;;;;;;10285468;28;20075;-68
2022/09/22 10:01:22;;;;;;;3.40;3.10;;;;;;;;;;10286241;28;20737;-68
2022/09/22 10:06:24;;;;;;;3.35;3.00;;;;;;;;;;10286107;28;20044;-68
2022/09/22 10:11:31;;;;;;;2.95;2.65;;;;;;;;;;10284758;28;20060;-69
2022/09/22 10:16:32;;;;;;;2.83;2.20;;;;;;;;;;10286348;28;20083;-67
2022/09/22 10:21:30;;;;;;;3.22;2.63;;;;;;;;;;10285657;28;20064;-67
2022/09/22 10:26:30;;;;;;;4.25;2.83;;;;;;;;;;10290760;28;20076;-68
2022/09/22 10:31:29;;;;;;;3.28;2.60;;;;;;;;;;10289951;28;20064;-67
2022/09/22 10:36:29;;;;;;;4.43;2.13;;;;;;;;;;10277745;28;20198;-68
2022/09/22 10:41:33;;;;;;;2.92;2.20;;;;;;;;;;10291172;28;20121;-68
2022/09/22 10:46:54;;;;;;;2.80;2.50;;;;;;;;;;10283632;28;20065;-68
2022/09/22 10:52:00;;;;;;;3.60;2.67;;;;;;;;;;10284653;28;20600;-67
2022/09/22 10:57:08;;;;;;;12.23;3.88;;;;;;;;;;10283271;28;20087;-68
2022/09/22 11:02:18;;;;;;;5.30;2.92;;;;;;;;;;10289012;28;20073;-68
2022/09/22 11:12:51;;;;;;;4.82;4.00;;;;;;;;;;10275194;28;20074;-69
2022/09/22 11:17:59;;;;;;;2.97;2.70;;;;;;;;;;10281041;28;20099;-68
2022/09/22 11:23:04;;;;;;;3.47;1.83;;;;;;;;;;10283246;28;20557;-69
2022/09/22 11:28:13;;;;;;;2.35;2.15;;;;;;;;;;10282100;28;20071;-68
2022/09/22 11:33:27;;;;;;;2.35;2.15;;;;;;;;;;10282167;28;20064;-68
2022/09/22 11:38:37;;;;;;;5.38;3.22;;;;;;;;;;10281570;28;20075;-69
2022/09/22 11:43:45;;;;;;;1.60;1.50;;;;;;;;;;10280259;28;20073;-68
2022/09/22 11:48:50;;;;;;;4.13;2.72;;;;;;;;;;10282738;28;20057;-69
2022/09/22 11:54:08;;;;;;;4.78;3.50;;;;;;;;;;10282121;28;20506;-69
2022/09/22 11:59:12;;;;;;;2.13;1.92;;;;;;;;;;10280751;28;20049;-69
2022/09/22 12:04:17;;;;;;;2.85;2.47;;;;;;;;;;10280016;28;20072;-69
2022/09/22 12:09:20;;;;;;;2.35;2.10;;;;;;;;;;10288721;28;20045;-69
2022/09/22 12:14:20;;;;;;;6.03;4.32;;;;;;;;;;10295841;28;20170;-68
2022/09/22 12:19:25;;;;;;;5.45;4.85;;;;;;;;;;10302896;28;20056;-67
2022/09/22 12:24:23;;;;;;;1.70;1.60;;;;;;;;;;10296642;28;20072;-69
2022/09/22 12:29:26;;;;;;;3.65;1.63;;;;;;;;;;10280881;28;20092;-68
2022/09/22 12:34:25;;;;;;;4.32;2.80;;;;;;;;;;10287723;28;20045;-68
2022/09/22 12:39:25;;;;;;;3.28;2.33;;;;;;;;;;10286295;28;20076;-68
2022/09/22 12:44:26;;;;;;;1.70;1.60;;;;;;;;;;10286901;28;20533;-68
2022/09/22 12:49:25;;;;;;;2.85;1.80;;;;;;;;;;10296884;28;20080;-70
2022/09/22 12:54:27;;;;;;;3.88;1.58;;;;;;;;;;10288025;28;20045;-68
2022/09/22 12:59:40;;;;;;;1.90;1.80;;;;;;;;;;10297688;28;20045;-68
2022/09/22 13:04:40;;;;;;;2.70;2.45;;;;;;;;;;10288530;28;20574;-69
2022/09/22 13:09:38;;;;;;;2.38;1.70;;;;;;;;;;10279720;28;20073;-69
2022/09/22 13:14:55;;;;;;;3.85;1.80;;;;;;;;;;10288127;28;20052;-68
2022/09/22 13:19:55;;;;;;;2.55;2.08;;;;;;;;;;10280034;28;20061;-69
2022/09/22 13:24:53;;;;;;;6.15;1.98;;;;;;;;;;10279329;28;20084;-69
2022/09/22 13:29:58;;;;;;;8.15;6.88;;;;;;;;;;10298612;28;20048;-69
2022/09/22 13:34:57;;;;;;;6.13;3.42;;;;;;;;;;10299985;28;20055;-68
2022/09/22 13:39:56;;;;;;;1.88;1.65;;;;;;;;;;10287907;28;20071;-70
2022/09/22 13:44:56;;;;;;;2.05;1.40;;;;;;;;;;10310347;28;20478;-69
2022/09/22 13:49:56;;;;;;;5.97;2.53;;;;;;;;;;10280993;28;20053;-69
2022/09/22 13:54:58;;;;;;;4.45;4.05;;;;;;;;;;10285404;28;20080;-68
2022/09/22 13:59:56;;;;;;;8.70;3.55;;;;;;;;;;10293469;28;20077;-70
2022/09/22 14:04:57;;;;;;;3.15;2.25;;;;;;;;;;10295701;28;20416;-70
2022/09/22 14:09:58;;;;;;;6.68;5.43;;;;;;;;;;10279496;28;20045;-71
2022/09/22 14:14:56;;;;;;;4.57;1.60;;;;;;;;;;10294878;28;20060;-69
2022/09/22 14:19:56;;;;;;;8.82;3.05;;;;;;;;;;10279185;28;20037;-67
2022/09/22 14:24:56;;;;;;;3.63;2.22;;;;;;;;;;10282449;28;20605;-70
2022/09/22 14:29:56;;;;;;;3.25;2.17;;;;;;;;;;10285478;28;20529;-69
2022/09/22 14:34:57;;;;;;;2.80;1.55;;;;;;;;;;10281225;28;20045;-69
2022/09/22 14:39:56;;;;;;;2.95;2.20;;;;;;;;;;10298987;28;20514;-70
2022/09/22 14:45:16;;;;;;;1.60;1.50;;;;;;;;;;10283929;28;20084;-69
2022/09/22 14:50:17;;;;;;;1.65;1.45;;;;;;;;;;10280672;28;20512;-68
2022/09/22 14:55:16;;;;;;;4.72;2.53;;;;;;;;;;10281669;28;20150;-69
2022/09/22 15:05:33;;;;;;;2.22;2.03;;;;;;;;;;10280441;28;20536;-68
2022/09/22 15:10:34;;;;;;;3.38;1.30;;;;;;;;;;10281089;28;20072;-69
2022/09/22 15:15:44;;;;;;;1.90;1.60;;;;;;;;;;10290486;28;20076;-69
2022/09/22 15:20:45;;;;;;;2.13;1.80;;;;;;;;;;10283085;28;20037;-68
2022/09/22 15:25:44;;;;;;;5.75;2.08;;;;;;;;;;10294606;28;20430;-68
2022/09/22 15:30:46;;;;;;;3.92;2.03;;;;;;;;;;10282124;28;20040;-69
2022/09/22 15:35:45;;;;;;;2.88;2.53;;;;;;;;;;10283659;28;20049;-66
2022/09/22 15:40:45;;;;;;;3.85;1.88;;;;;;;;;;10280353;28;20083;-63
2022/09/22 15:45:47;;;;;;;6.47;2.17;;;;;;;;;;10293941;28;20152;-65
2022/09/22 15:50:45;;;;;;;4.57;2.17;;;;;;;;;;10276437;28;20064;-65
2022/09/22 15:55:43;;;;;;;3.05;1.83;;;;;;;;;;10286702;28;20036;-64
2022/09/22 16:00:42;;;;;;;3.10;2.13;;;;;;;;;;10281083;28;20482;-63
2022/09/22 16:05:42;;;;;;;2.65;1.30;;;;;;;;;;10274977;28;20073;-63
2022/09/22 16:10:40;;;;;;;1.75;1.50;;;;;;;;;;10288873;28;20068;-63
2022/09/22 16:15:41;;;;;;;3.28;2.00;;;;;;;;;;10288063;28;20072;-64
2022/09/22 16:20:41;;;;;;;3.17;1.75;;;;;;;;;;10290481;28;20398;-64
2022/09/22 16:25:41;;;;;;;3.25;2.50;;;;;;;;;;10284118;28;20091;-65
2022/09/22 16:30:40;;;;;;;2.80;2.50;;;;;;;;;;10288016;28;20536;-63
2022/09/22 16:35:38;;;;;;;2.03;1.55;;;;;;;;;;10287194;28;20048;-64
2022/09/22 16:40:36;;;;;;;2.17;1.58;;;;;;;;;;10293181;28;20134;-65
2022/09/22 16:50:53;;;;;;;1.60;1.50;;;;;;;;;;10292960;28;20442;-64
2022/09/22 16:55:51;;;;;;;3.80;3.15;;;;;;;;;;10289121;28;20059;-64
2022/09/22 17:00:51;;;;;;;3.70;3.30;;;;;;;;;;10291374;28;20069;-64
2022/09/22 17:05:50;;;;;;;2.55;2.20;;;;;;;;;;10296218;28;20080;-65
2022/09/22 17:10:48;;;;;;;2.50;1.83;;;;;;;;;;10293202;28;20120;-63
2022/09/22 17:15:48;;;;;;;2.20;2.00;;;;;;;;;;10310839;28;20052;-64
2022/09/22 17:20:49;;;;;;;2.10;1.40;;;;;;;;;;10290217;28;20088;-63
2022/09/22 17:25:47;;;;;;;2.08;1.88;;;;;;;;;;10286760;28;20084;-64
2022/09/22 17:30:56;;;;;;;3.70;1.60;;;;;;;;;;10281178;28;20072;-63
2022/09/22 17:35:59;;;;;;;3.65;1.85;;;;;;;;;;10297524;28;20095;-65
2022/09/22 17:41:06;;;;;;;3.28;1.83;;;;;;;;;;10287457;28;20048;-65
2022/09/22 17:46:04;;;;;;;4.65;2.50;;;;;;;;;;10288274;28;20530;-64
2022/09/22 17:56:20;;;;;;;4.40;1.67;;;;;;;;;;10293834;28;20457;-64
2022/09/22 18:01:18;;;;;;;2.03;1.83;;;;;;;;;;10308827;28;20071;-64
2022/09/22 18:06:19;;;;;;;3.33;1.88;;;;;;;;;;10286948;28;20068;-63
2022/09/22 18:11:18;;;;;;;3.13;2.60;;;;;;;;;;10285442;28;20079;-65
2022/09/22 18:16:18;;;;;;;4.32;2.80;;;;;;;;;;10285756;28;20064;-64
2022/09/22 18:21:17;;;;;;;3.88;2.20;;;;;;;;;;10284299;28;20155;-64
2022/09/22 18:26:16;;;;;;;5.00;2.22;;;;;;;;;;10283979;28;20489;-64
2022/09/22 18:31:16;;;;;;;3.22;2.42;;;;;;;;;;10281039;28;20064;-64
2022/09/22 18:36:14;;;;;;;4.35;2.53;;;;;;;;;;10282000;28;20068;-65
2022/09/22 18:41:14;;;;;;;6.35;2.00;;;;;;;;;;10279803;28;20079;-63
2022/09/22 18:46:18;;;;;;;3.85;2.42;;;;;;;;;;10279156;28;20514;-65
2022/09/22 18:51:17;;;;;;;4.93;2.17;;;;;;;;;;10286314;28;20064;-63
2022/09/22 18:56:17;;;;;;;4.45;2.63;;;;;;;;;;10287608;28;20072;-64
2022/09/22 19:01:17;;;;;;;3.17;2.28;;;;;;;;;;10284287;28;20467;-64
2022/09/22 19:06:15;;;;;;;3.83;1.90;;;;;;;;;;10292699;28;20224;-64
2022/09/22 19:11:16;;;;;;;3.78;2.25;;;;;;;;;;10276662;28;20076;-64
2022/09/22 19:16:15;;;;;;;5.32;2.72;;;;;;;;;;10300063;28;20040;-65
2022/09/22 19:21:14;;;;;;;4.35;3.20;;;;;;;;;;10279728;28;20056;-65
2022/09/22 19:26:15;;;;;;;2.45;2.25;;;;;;;;;;10280763;28;20159;-64
2022/09/22 19:31:13;;;;;;;4.50;2.47;;;;;;;;;;10283241;28;20072;-64
2022/09/22 19:36:12;;;;;;;3.85;2.10;;;;;;;;;;10280455;28;20070;-65
2022/09/22 19:41:11;;;;;;;2.05;1.85;;;;;;;;;;10280866;28;20091;-66
2022/09/22 19:46:12;;;;;;;3.83;1.80;;;;;;;;;;10281075;28;20072;-65
2022/09/22 19:51:10;;;;;;;2.75;2.20;;;;;;;;;;10280251;28;20072;-64
2022/09/22 19:56:10;;;;;;;4.35;2.60;;;;;;;;;;10282282;28;20087;-64
2022/09/22 20:01:09;;;;;;;3.45;2.17;;;;;;;;;;10294264;28;20076;-65
2022/09/22 20:06:08;;;;;;;1.83;1.70;;;;;;;;;;10273126;28;20079;-64
2022/09/22 20:11:06;;;;;;;3.80;1.60;;;;;;;;;;10279722;28;20075;-65
2022/09/22 20:16:26;;;;;;;1.90;1.70;;;;;;;;;;10281397;28;20096;-64
2022/09/22 20:21:26;;;;;;;2.30;2.00;;;;;;;;;;10284247;28;20049;-64
2022/09/22 20:26:25;;;;;;;5.85;2.13;;;;;;;;;;10288694;28;20096;-65
2022/09/22 20:31:24;;;;;;;5.13;2.45;;;;;;;;;;10274392;28;20060;-64
2022/09/22 20:36:23;;;;;;;5.18;2.40;;;;;;;;;;10287497;28;20064;-64
2022/09/22 20:41:21;;;;;;;3.55;2.45;;;;;;;;;;10294462;28;20075;-65
2022/09/22 20:46:20;;;;;;;4.25;2.50;;;;;;;;;;10278670;28;20072;-65
2022/09/22 20:51:20;;;;;;;3.28;2.33;;;;;;;;;;10288215;28;20124;-65
2022/09/22 20:56:18;;;;;;;4.13;2.60;;;;;;;;;;10296704;28;20076;-66
2022/09/22 21:01:17;;;;;;;2.45;2.25;;;;;;;;;;10281113;28;20041;-63
2022/09/22 21:06:16;;;;;;;4.22;2.17;;;;;;;;;;10293979;28;20477;-64
2022/09/22 21:11:17;;;;;;;3.33;1.90;;;;;;;;;;10285371;28;20506;-64
2022/09/22 21:16:15;;;;;;;2.25;1.98;;;;;;;;;;10283843;28;20059;-64
2022/09/22 21:21:16;;;;;;;8.27;1.90;;;;;;;;;;10285625;28;20076;-66
2022/09/22 21:26:17;;;;;;;1.67;1.58;;;;;;;;;;10284595;28;20087;-66
2022/09/22 21:31:16;;;;;;;1.58;1.48;;;;;;;;;;10283542;28;20540;-65
2022/09/22 21:36:18;;;;;;;1.88;1.40;;;;;;;;;;10286135;28;20075;-65
2022/09/22 21:41:18;;;;;;;1.83;1.52;;;;;;;;;;10289864;28;20189;-64
2022/09/22 21:46:18;;;;;;;1.50;1.13;;;;;;;;;;10292148;28;20076;-66
2022/09/22 21:51:18;;;;;;;1.50;1.30;;;;;;;;;;10285665;28;20106;-65
2022/09/22 21:56:18;;;;;;;1.10;1.00;;;;;;;;;;10293406;28;20081;-64
2022/09/22 22:01:17;;;;;;;2.80;1.70;;;;;;;;;;10308145;28;20080;-64
2022/09/22 22:06:17;;;;;;;2.72;1.35;;;;;;;;;;10289281;28;20073;-64
2022/09/22 22:11:18;;;;;;;1.35;1.20;;;;;;;;;;10288815;28;20072;-65
2022/09/22 22:16:18;;;;;;;1.25;1.17;;;;;;;;;;10273239;28;20072;-65
2022/09/22 22:21:18;;;;;;;2.22;1.60;;;;;;;;;;10287444;28;20083;-64
2022/09/22 22:26:18;;;;;;;1.67;1.50;;;;;;;;;;10283475;28;20079;-64
2022/09/22 22:31:19;;;;;;;1.25;1.10;;;;;;;;;;10283563;28;20037;-64
2022/09/22 22:36:18;;;;;;;1.08;0.98;;;;;;;;;;10284036;28;20466;-64
2022/09/22 22:41:16;;;;;;;0.90;0.90;;;;;;;;;;10284447;28;20056;-64
2022/09/22 22:46:15;;;;;;;1.30;1.20;;;;;;;;;;10283383;28;20075;-64
2022/09/22 22:51:15;;;;;;;2.17;1.10;;;;;;;;;;10282583;28;20060;-64
2022/09/22 22:56:15;;;;;;;1.08;0.98;;;;;;;;;;10283035;28;20435;-65
2022/09/22 23:01:14;;;;;;;1.30;1.20;;;;;;;;;;10282629;28;20174;-64
2022/09/22 23:06:14;;;;;;;1.25;1.15;;;;;;;;;;10275536;28;20068;-64
2022/09/22 23:11:14;;;;;;;1.30;1.20;;;;;;;;;;10281549;28;20076;-64
2022/09/22 23:16:15;;;;;;;1.00;1.00;;;;;;;;;;10280254;28;20065;-64
2022/09/22 23:21:15;;;;;;;2.08;1.10;;;;;;;;;;10281329;28;20079;-64
2022/09/22 23:26:15;;;;;;;0.82;0.80;;;;;;;;;;10281425;28;20075;-64
2022/09/22 23:31:14;;;;;;;1.17;1.00;;;;;;;;;;10282205;28;20039;-65
2022/09/22 23:36:13;;;;;;;3.95;1.00;;;;;;;;;;10282177;28;20535;-64
2022/09/22 23:41:12;;;;;;;1.23;1.10;;;;;;;;;;10280524;28;20068;-64
2022/09/22 23:46:11;;;;;;;1.00;1.00;;;;;;;;;;10282274;28;20083;-64
2022/09/22 23:51:09;;;;;;;1.42;1.33;;;;;;;;;;10282305;28;20080;-64
2022/09/22 23:56:08;;;;;;;1.40;1.30;;;;;;;;;;10281125;28;20087;-65
